Главная страница
METAR-TAF:

METAR-TAF

Аэропорты :

Векшё, Швеция

широта: 56-51N, долгота: 014-50E, высота над уровнем моря: 199 м

Текущие метеонаблюдения

Эта сводка был подготовлена 32 минут назад, в 22:50 UTC
Ветер 4 Узел от западно-северо-западный
Температура 4°C
Влажность 93%
Давление 1037 hPa
Видимость 10 км и более

METAR: ESMX 172250Z AUTO 29004KT 9999 OVC010/// 04/03 Q1037

Время: 00:22 (23:22 UTC)

Прогноз

Эта сводка был подготовлена 14 часа и 52 минут назад, в 08:30 UTC
Прогноз действительный с 17-го 09 UTC до 17-го 11 UTC
Ветер 5 Узел от западный-юго-западный
Видимость 10 км и более
Сплошная облачность на высоте 800 фута
изменения
С 17-го 10 UTC до 17-го 11 UTC
Отдельные облака на высоте 1000 фута
Сплошная облачность на высоте 1500 фута

TAF: ESMX 170830Z 1709/1711 24005KT 9999 OVC008 BECMG 1710/1711 SCT010 OVC015

Метеонаблюдения и прогнозы для более 4000 аэропортов (сводки METAR и TAF).

Имеющиеся станции представлены на карте желтыми и красными точками.

Чтобы увидеть название станции, наведите на нее мышь.

Затем щелкните, чтобы увидеть метеонаблюдения и метеопрогнозы.

Управление картой: чтобы увеличить масштаб, щелкните зеленые кнопки с черным крестиком; чтобы уменьшить масштаб, щелкните зеленую кнопку с тире; для просмотра соседних карт щелкайте зеленые стрелки.


METAR-TAF: